Terminal Aerodrome Forecast
Issued by NWS

Home | Current Version | Previous Version | Text Only | Print | Product List | Glossary On
Versions: 1 2 3 4 5 6 7 8 9 10 11 12 13 14 15 16 17 18 19 20
000
FTUS43 KDLH 241900 AAA
TAFBRD
TAF AMD
KBRD 241911Z 2419/2518 32017G31KT P6SM SCT025
      TEMPO 2421/2423 6SM BLSN BKN025
     FM250000 32009KT P6SM SCT030
     FM250600 33004KT P6SM BKN120
     FM251500 36005KT P6SM BKN100=

USA.gov is the U.S. government's official web portal to all federal, state and local government web resources and services.